sensor_id;sensor_type;location;lat;lon;timestamp;temperature;humidity
19646;DHT22;9971;52.446;13.452;2023-11-21T00:01:39;11.10;99.90
19646;DHT22;9971;52.446;13.452;2023-11-21T00:06:42;11.10;99.90
19646;DHT22;9971;52.446;13.452;2023-11-21T00:11:44;11.10;99.90
19646;DHT22;9971;52.446;13.452;2023-11-21T00:16:48;11.00;99.90
19646;DHT22;9971;52.446;13.452;2023-11-21T00:21:56;10.90;99.90
19646;DHT22;9971;52.446;13.452;2023-11-21T00:27:01;10.70;99.90
19646;DHT22;9971;52.446;13.452;2023-11-21T00:32:04;10.60;99.90
19646;DHT22;9971;52.446;13.452;2023-11-21T00:37:07;10.50;99.90
19646;DHT22;9971;52.446;13.452;2023-11-21T00:42:10;10.40;99.90
19646;DHT22;9971;52.446;13.452;2023-11-21T00:47:12;10.30;99.90
19646;DHT22;9971;52.446;13.452;2023-11-21T00:52:15;10.20;99.90
19646;DHT22;9971;52.446;13.452;2023-11-21T00:57:18;10.20;99.90
19646;DHT22;9971;52.446;13.452;2023-11-21T01:02:22;10.10;99.90
19646;DHT22;9971;52.446;13.452;2023-11-21T01:07:28;10.00;99.90
19646;DHT22;9971;52.446;13.452;2023-11-21T01:12:33;9.90;99.90
19646;DHT22;9971;52.446;13.452;2023-11-21T01:17:39;9.80;99.90
19646;DHT22;9971;52.446;13.452;2023-11-21T01:22:43;9.70;99.90
19646;DHT22;9971;52.446;13.452;2023-11-21T01:28:00;9.70;99.90
19646;DHT22;9971;52.446;13.452;2023-11-21T01:33:04;9.60;99.90
19646;DHT22;9971;52.446;13.452;2023-11-21T01:38:07;9.50;99.90
19646;DHT22;9971;52.446;13.452;2023-11-21T01:43:13;9.50;99.90
19646;DHT22;9971;52.446;13.452;2023-11-21T01:48:15;9.40;99.90
19646;DHT22;9971;52.446;13.452;2023-11-21T01:53:24;9.30;99.90
19646;DHT22;9971;52.446;13.452;2023-11-21T01:58:25;9.30;99.90
19646;DHT22;9971;52.446;13.452;2023-11-21T02:03:28;9.20;99.90
19646;DHT22;9971;52.446;13.452;2023-11-21T02:08:30;9.20;99.90
19646;DHT22;9971;52.446;13.452;2023-11-21T02:13:32;9.10;99.90
19646;DHT22;9971;52.446;13.452;2023-11-21T02:18:35;9.10;99.90
19646;DHT22;9971;52.446;13.452;2023-11-21T02:23:37;9.10;99.90
19646;DHT22;9971;52.446;13.452;2023-11-21T02:28:40;9.10;99.90
19646;DHT22;9971;52.446;13.452;2023-11-21T02:33:45;9.10;99.90
19646;DHT22;9971;52.446;13.452;2023-11-21T02:38:48;9.10;99.90
19646;DHT22;9971;52.446;13.452;2023-11-21T02:44:01;9.00;99.90
19646;DHT22;9971;52.446;13.452;2023-11-21T02:49:03;9.00;99.90
19646;DHT22;9971;52.446;13.452;2023-11-21T02:54:07;9.00;99.90
19646;DHT22;9971;52.446;13.452;2023-11-21T02:59:09;9.00;99.90
19646;DHT22;9971;52.446;13.452;2023-11-21T03:04:13;8.90;99.90
19646;DHT22;9971;52.446;13.452;2023-11-21T03:09:17;8.90;99.90
19646;DHT22;9971;52.446;13.452;2023-11-21T03:14:19;8.80;99.90
19646;DHT22;9971;52.446;13.452;2023-11-21T03:19:22;8.80;99.90
19646;DHT22;9971;52.446;13.452;2023-11-21T03:24:24;8.80;99.90
19646;DHT22;9971;52.446;13.452;2023-11-21T03:29:28;8.80;99.90
19646;DHT22;9971;52.446;13.452;2023-11-21T03:34:32;8.70;99.90
19646;DHT22;9971;52.446;13.452;2023-11-21T03:39:34;8.70;99.90
19646;DHT22;9971;52.446;13.452;2023-11-21T03:44:40;8.70;99.90
19646;DHT22;9971;52.446;13.452;2023-11-21T03:49:43;8.70;99.90
19646;DHT22;9971;52.446;13.452;2023-11-21T03:54:46;8.70;99.90
19646;DHT22;9971;52.446;13.452;2023-11-21T03:59:48;8.70;99.90
19646;DHT22;9971;52.446;13.452;2023-11-21T04:04:51;8.70;99.90
19646;DHT22;9971;52.446;13.452;2023-11-21T04:09:54;8.70;99.90
19646;DHT22;9971;52.446;13.452;2023-11-21T04:14:57;8.70;99.90
19646;DHT22;9971;52.446;13.452;2023-11-21T04:20:00;8.60;99.90
19646;DHT22;9971;52.446;13.452;2023-11-21T04:25:02;8.60;99.90
19646;DHT22;9971;52.446;13.452;2023-11-21T04:30:05;8.60;99.90
19646;DHT22;9971;52.446;13.452;2023-11-21T04:35:09;8.60;99.90
19646;DHT22;9971;52.446;13.452;2023-11-21T04:40:20;8.60;99.90
19646;DHT22;9971;52.446;13.452;2023-11-21T04:45:23;8.50;99.90
19646;DHT22;9971;52.446;13.452;2023-11-21T04:50:26;8.50;99.90
19646;DHT22;9971;52.446;13.452;2023-11-21T04:55:28;8.50;99.90
19646;DHT22;9971;52.446;13.452;2023-11-21T05:00:31;8.50;99.90
19646;DHT22;9971;52.446;13.452;2023-11-21T05:05:33;8.50;99.90
19646;DHT22;9971;52.446;13.452;2023-11-21T05:10:38;8.40;99.90
19646;DHT22;9971;52.446;13.452;2023-11-21T05:15:42;8.40;99.90
19646;DHT22;9971;52.446;13.452;2023-11-21T05:20:44;8.40;99.90
19646;DHT22;9971;52.446;13.452;2023-11-21T05:25:47;8.40;99.90
19646;DHT22;9971;52.446;13.452;2023-11-21T05:30:49;8.40;99.90
19646;DHT22;9971;52.446;13.452;2023-11-21T05:35:54;8.40;99.90
19646;DHT22;9971;52.446;13.452;2023-11-21T05:40:56;8.40;99.90
19646;DHT22;9971;52.446;13.452;2023-11-21T05:45:59;8.40;99.90
19646;DHT22;9971;52.446;13.452;2023-11-21T05:51:01;8.40;99.90
19646;DHT22;9971;52.446;13.452;2023-11-21T05:56:05;8.40;99.90
19646;DHT22;9971;52.446;13.452;2023-11-21T06:01:07;8.30;99.90
19646;DHT22;9971;52.446;13.452;2023-11-21T06:06:10;8.30;99.90
19646;DHT22;9971;52.446;13.452;2023-11-21T06:11:13;8.30;99.90
19646;DHT22;9971;52.446;13.452;2023-11-21T06:16:15;8.30;99.90
19646;DHT22;9971;52.446;13.452;2023-11-21T06:21:18;8.30;99.90
19646;DHT22;9971;52.446;13.452;2023-11-21T06:26:21;8.30;99.90
19646;DHT22;9971;52.446;13.452;2023-11-21T06:31:24;8.30;99.90
19646;DHT22;9971;52.446;13.452;2023-11-21T06:36:27;8.30;99.90
19646;DHT22;9971;52.446;13.452;2023-11-21T06:41:29;8.30;99.90
19646;DHT22;9971;52.446;13.452;2023-11-21T06:46:32;8.30;99.90
19646;DHT22;9971;52.446;13.452;2023-11-21T06:51:35;8.30;99.90
19646;DHT22;9971;52.446;13.452;2023-11-21T06:56:39;8.30;99.90
19646;DHT22;9971;52.446;13.452;2023-11-21T07:01:41;8.30;99.90
19646;DHT22;9971;52.446;13.452;2023-11-21T07:06:43;8.20;99.90
19646;DHT22;9971;52.446;13.452;2023-11-21T07:11:46;8.30;99.90
19646;DHT22;9971;52.446;13.452;2023-11-21T07:16:48;8.20;99.90
19646;DHT22;9971;52.446;13.452;2023-11-21T07:21:50;8.20;99.90
19646;DHT22;9971;52.446;13.452;2023-11-21T07:26:53;8.10;99.90
19646;DHT22;9971;52.446;13.452;2023-11-21T07:31:55;8.10;99.90
19646;DHT22;9971;52.446;13.452;2023-11-21T07:36:58;8.10;99.90
19646;DHT22;9971;52.446;13.452;2023-11-21T07:42:04;8.10;99.90
19646;DHT22;9971;52.446;13.452;2023-11-21T07:47:08;8.10;99.90
19646;DHT22;9971;52.446;13.452;2023-11-21T07:52:12;8.10;99.90
19646;DHT22;9971;52.446;13.452;2023-11-21T07:57:15;8.10;99.90
19646;DHT22;9971;52.446;13.452;2023-11-21T08:02:18;8.00;99.90
19646;DHT22;9971;52.446;13.452;2023-11-21T08:07:28;8.10;99.90
19646;DHT22;9971;52.446;13.452;2023-11-21T08:18:03;8.10;99.90
19646;DHT22;9971;52.446;13.452;2023-11-21T08:23:05;8.10;99.90
19646;DHT22;9971;52.446;13.452;2023-11-21T08:28:07;8.00;99.90
19646;DHT22;9971;52.446;13.452;2023-11-21T08:33:10;8.10;99.90
19646;DHT22;9971;52.446;13.452;2023-11-21T08:38:17;8.10;99.90
19646;DHT22;9971;52.446;13.452;2023-11-21T08:43:20;8.00;99.90
19646;DHT22;9971;52.446;13.452;2023-11-21T08:48:23;8.00;99.90
19646;DHT22;9971;52.446;13.452;2023-11-21T08:53:26;8.00;99.90
19646;DHT22;9971;52.446;13.452;2023-11-21T08:58:29;8.00;99.90
19646;DHT22;9971;52.446;13.452;2023-11-21T09:03:39;8.00;99.90
19646;DHT22;9971;52.446;13.452;2023-11-21T09:08:52;8.10;99.90
19646;DHT22;9971;52.446;13.452;2023-11-21T09:13:55;8.10;99.90
19646;DHT22;9971;52.446;13.452;2023-11-21T09:19:05;8.50;99.90
19646;DHT22;9971;52.446;13.452;2023-11-21T09:24:08;9.20;99.90
19646;DHT22;9971;52.446;13.452;2023-11-21T09:29:12;10.00;99.90
19646;DHT22;9971;52.446;13.452;2023-11-21T09:34:15;10.60;99.90
19646;DHT22;9971;52.446;13.452;2023-11-21T09:39:20;11.20;99.90
19646;DHT22;9971;52.446;13.452;2023-11-21T09:44:43;11.80;99.90
19646;DHT22;9971;52.446;13.452;2023-11-21T09:49:50;12.30;99.90
19646;DHT22;9971;52.446;13.452;2023-11-21T09:54:52;12.80;99.90
19646;DHT22;9971;52.446;13.452;2023-11-21T09:59:55;13.20;99.90
19646;DHT22;9971;52.446;13.452;2023-11-21T10:04:58;13.50;99.90
19646;DHT22;9971;52.446;13.452;2023-11-21T10:09:59;13.90;99.90
19646;DHT22;9971;52.446;13.452;2023-11-21T10:15:01;14.20;99.90
19646;DHT22;9971;52.446;13.452;2023-11-21T10:20:08;14.40;99.90
19646;DHT22;9971;52.446;13.452;2023-11-21T10:25:12;14.70;99.90
19646;DHT22;9971;52.446;13.452;2023-11-21T10:30:17;15.00;99.90
19646;DHT22;9971;52.446;13.452;2023-11-21T10:35:20;15.20;99.90
19646;DHT22;9971;52.446;13.452;2023-11-21T10:40:28;15.40;99.90
19646;DHT22;9971;52.446;13.452;2023-11-21T10:45:30;15.60;99.90
19646;DHT22;9971;52.446;13.452;2023-11-21T11:11:59;16.50;99.90
19646;DHT22;9971;52.446;13.452;2023-11-21T11:17:01;16.60;99.90
19646;DHT22;9971;52.446;13.452;2023-11-21T11:22:27;16.70;99.90
19646;DHT22;9971;52.446;13.452;2023-11-21T11:54:40;17.50;99.90
19646;DHT22;9971;52.446;13.452;2023-11-21T12:04:56;17.80;99.90
19646;DHT22;9971;52.446;13.452;2023-11-21T12:26:02;9.90;99.90
19646;DHT22;9971;52.446;13.452;2023-11-21T12:47:09;8.00;99.90
19646;DHT22;9971;52.446;13.452;2023-11-21T12:52:13;7.90;99.90
19646;DHT22;9971;52.446;13.452;2023-11-21T13:13:28;7.70;99.90
19646;DHT22;9971;52.446;13.452;2023-11-21T13:24:03;7.60;99.90
19646;DHT22;9971;52.446;13.452;2023-11-21T13:29:12;7.60;99.90
19646;DHT22;9971;52.446;13.452;2023-11-21T13:34:15;7.50;99.90
19646;DHT22;9971;52.446;13.452;2023-11-21T13:39:17;7.50;99.90
19646;DHT22;9971;52.446;13.452;2023-11-21T13:44:22;7.50;99.90
19646;DHT22;9971;52.446;13.452;2023-11-21T13:49:48;7.40;99.90
19646;DHT22;9971;52.446;13.452;2023-11-21T13:54:53;7.40;99.90
19646;DHT22;9971;52.446;13.452;2023-11-21T14:00:03;7.30;99.90
19646;DHT22;9971;52.446;13.452;2023-11-21T14:05:09;7.20;99.90
19646;DHT22;9971;52.446;13.452;2023-11-21T14:10:11;7.20;99.90
19646;DHT22;9971;52.446;13.452;2023-11-21T14:15:14;7.30;99.90
19646;DHT22;9971;52.446;13.452;2023-11-21T14:20:20;8.00;99.90
19646;DHT22;9971;52.446;13.452;2023-11-21T14:25:23;8.80;99.90
19646;DHT22;9971;52.446;13.452;2023-11-21T14:30:27;9.60;99.90
19646;DHT22;9971;52.446;13.452;2023-11-21T14:35:31;10.30;99.90
19646;DHT22;9971;52.446;13.452;2023-11-21T14:40:38;10.90;99.90
19646;DHT22;9971;52.446;13.452;2023-11-21T14:45:47;11.40;99.90
19646;DHT22;9971;52.446;13.452;2023-11-21T14:50:55;12.00;99.90
19646;DHT22;9971;52.446;13.452;2023-11-21T14:56:01;12.50;99.90
19646;DHT22;9971;52.446;13.452;2023-11-21T15:01:06;12.90;99.90
19646;DHT22;9971;52.446;13.452;2023-11-21T15:06:08;13.30;99.90
19646;DHT22;9971;52.446;13.452;2023-11-21T15:11:17;13.60;99.90
19646;DHT22;9971;52.446;13.452;2023-11-21T15:16:20;13.90;99.90
19646;DHT22;9971;52.446;13.452;2023-11-21T15:21:22;14.10;99.90
19646;DHT22;9971;52.446;13.452;2023-11-21T15:26:25;14.30;99.90
19646;DHT22;9971;52.446;13.452;2023-11-21T15:31:28;14.60;99.90
19646;DHT22;9971;52.446;13.452;2023-11-21T15:36:30;14.80;99.90
19646;DHT22;9971;52.446;13.452;2023-11-21T15:46:42;15.30;99.90
19646;DHT22;9971;52.446;13.452;2023-11-21T15:51:45;14.60;99.90
19646;DHT22;9971;52.446;13.452;2023-11-21T15:56:53;10.60;99.90
19646;DHT22;9971;52.446;13.452;2023-11-21T16:02:00;8.50;99.90
19646;DHT22;9971;52.446;13.452;2023-11-21T16:07:03;7.50;99.90
19646;DHT22;9971;52.446;13.452;2023-11-21T16:12:06;7.00;99.90
19646;DHT22;9971;52.446;13.452;2023-11-21T16:17:08;6.80;99.90
19646;DHT22;9971;52.446;13.452;2023-11-21T16:22:11;6.60;99.90
19646;DHT22;9971;52.446;13.452;2023-11-21T16:52:15;6.50;99.90
19646;DHT22;9971;52.446;13.452;2023-11-21T16:57:19;10.80;99.90
19646;DHT22;9971;52.446;13.452;2023-11-21T17:02:22;11.30;99.90
19646;DHT22;9971;52.446;13.452;2023-11-21T17:07:26;11.90;99.90
19646;DHT22;9971;52.446;13.452;2023-11-21T17:28:33;13.60;99.90
19646;DHT22;9971;52.446;13.452;2023-11-21T17:33:37;14.00;99.90
19646;DHT22;9971;52.446;13.452;2023-11-21T17:38:39;14.30;99.90
19646;DHT22;9971;52.446;13.452;2023-11-21T17:43:42;14.50;99.90
19646;DHT22;9971;52.446;13.452;2023-11-21T17:48:44;14.70;99.90
19646;DHT22;9971;52.446;13.452;2023-11-21T17:53:46;15.00;99.90
19646;DHT22;9971;52.446;13.452;2023-11-21T17:58:49;15.20;99.90
19646;DHT22;9971;52.446;13.452;2023-11-21T18:09:08;15.70;99.90
19646;DHT22;9971;52.446;13.452;2023-11-21T18:14:16;15.90;99.90
19646;DHT22;9971;52.446;13.452;2023-11-21T18:30:29;16.40;99.90
19646;DHT22;9971;52.446;13.452;2023-11-21T18:35:38;16.60;99.90
19646;DHT22;9971;52.446;13.452;2023-11-21T18:41:21;16.70;99.90
19646;DHT22;9971;52.446;13.452;2023-11-21T18:46:09;16.80;99.90
19646;DHT22;9971;52.446;13.452;2023-11-21T18:51:15;17.00;99.90
19646;DHT22;9971;52.446;13.452;2023-11-21T18:56:19;17.10;99.90
19646;DHT22;9971;52.446;13.452;2023-11-21T19:01:32;17.20;99.90
19646;DHT22;9971;52.446;13.452;2023-11-21T19:06:34;17.30;99.90
19646;DHT22;9971;52.446;13.452;2023-11-21T19:11:37;17.30;99.90
19646;DHT22;9971;52.446;13.452;2023-11-21T19:16:43;17.40;97.50
19646;DHT22;9971;52.446;13.452;2023-11-21T19:21:47;17.60;97.20
19646;DHT22;9971;52.446;13.452;2023-11-21T19:26:52;17.60;97.90
19646;DHT22;9971;52.446;13.452;2023-11-21T19:31:59;17.70;99.80
19646;DHT22;9971;52.446;13.452;2023-11-21T19:37:02;17.80;99.20
19646;DHT22;9971;52.446;13.452;2023-11-21T19:58:08;18.20;96.90
19646;DHT22;9971;52.446;13.452;2023-11-21T20:03:11;18.20;94.40
19646;DHT22;9971;52.446;13.452;2023-11-21T20:08:14;18.20;90.90
19646;DHT22;9971;52.446;13.452;2023-11-21T20:13:16;18.30;93.50
19646;DHT22;9971;52.446;13.452;2023-11-21T20:18:18;18.40;95.10
19646;DHT22;9971;52.446;13.452;2023-11-21T20:23:23;18.50;96.80
19646;DHT22;9971;52.446;13.452;2023-11-21T20:28:32;18.50;95.80
19646;DHT22;9971;52.446;13.452;2023-11-21T20:39:19;18.60;93.40
19646;DHT22;9971;52.446;13.452;2023-11-21T20:44:22;18.70;92.10
19646;DHT22;9971;52.446;13.452;2023-11-21T20:49:25;18.70;90.10
19646;DHT22;9971;52.446;13.452;2023-11-21T20:54:27;18.80;86.00
19646;DHT22;9971;52.446;13.452;2023-11-21T20:59:35;18.80;82.00
19646;DHT22;9971;52.446;13.452;2023-11-21T21:04:38;18.80;83.80
19646;DHT22;9971;52.446;13.452;2023-11-21T21:09:41;18.90;91.20
19646;DHT22;9971;52.446;13.452;2023-11-21T21:14:46;18.90;87.20
19646;DHT22;9971;52.446;13.452;2023-11-21T21:26:04;18.90;84.20
19646;DHT22;9971;52.446;13.452;2023-11-21T21:47:16;19.10;84.10
19646;DHT22;9971;52.446;13.452;2023-11-21T21:52:54;19.10;77.60
19646;DHT22;9971;52.446;13.452;2023-11-21T21:57:58;19.10;72.80
19646;DHT22;9971;52.446;13.452;2023-11-21T22:03:03;19.20;70.70
19646;DHT22;9971;52.446;13.452;2023-11-21T22:08:13;19.20;67.40
19646;DHT22;9971;52.446;13.452;2023-11-21T22:13:20;19.10;67.60
19646;DHT22;9971;52.446;13.452;2023-11-21T22:18:24;19.20;65.00
19646;DHT22;9971;52.446;13.452;2023-11-21T22:39:32;19.20;62.90
19646;DHT22;9971;52.446;13.452;2023-11-21T22:44:36;19.30;62.70
19646;DHT22;9971;52.446;13.452;2023-11-21T22:49:38;19.30;60.70
19646;DHT22;9971;52.446;13.452;2023-11-21T22:54:42;19.30;58.80
19646;DHT22;9971;52.446;13.452;2023-11-21T22:59:47;19.30;64.70
19646;DHT22;9971;52.446;13.452;2023-11-21T23:04:51;19.20;61.10
19646;DHT22;9971;52.446;13.452;2023-11-21T23:10:15;19.30;59.30
19646;DHT22;9971;52.446;13.452;2023-11-21T23:15:31;19.20;58.60
19646;DHT22;9971;52.446;13.452;2023-11-21T23:20:42;19.30;59.00
19646;DHT22;9971;52.446;13.452;2023-11-21T23:25:46;19.30;58.70
19646;DHT22;9971;52.446;13.452;2023-11-21T23:30:52;19.30;62.20
19646;DHT22;9971;52.446;13.452;2023-11-21T23:35:59;19.30;62.10
19646;DHT22;9971;52.446;13.452;2023-11-21T23:41:10;19.30;59.70
19646;DHT22;9971;52.446;13.452;2023-11-21T23:46:26;19.30;58.60
19646;DHT22;9971;52.446;13.452;2023-11-21T23:51:41;19.30;57.80
